SGCO/CIO METAR and TAF weather

Enter ICAO airport designator
Station Type Date Time Source
SGCO METAR 2019/05/04 00:00 UTC NOAA

SGCO 040000Z 06014KT 9999 TS BKN030 FEW040CB 26/24 Q1009


Station Type Date Time Source
SGCO Decoded METAR 2019/05/04 00:00 UTC NOAA

Concepcion, Paraguay (SGCO) 23-25S 057-18W 74M
May 03, 2019 - 08:00 PM EDT / 2019.05.04 0000 UTC
Wind: from the ENE (060 degrees) at 16 MPH (14 KT):0
Visibility: greater than 7 mile(s):0
Sky conditions: mostly cloudy
Weather: thunder; Cumulonimbus clouds observed
Temperature: 78 F (26 C)
Dew Point: 75 F (24 C)
Relative Humidity: 88%
Pressure (altimeter): 29.80 in. Hg (1009 hPa)
ob: SGCO 040000Z 06014KT 9999 TS BKN030 FEW040CB 26/24 Q1009
cycle: 0

Station Type Date Time Source
SGCO TAF 2019/05/18 18:00 UTC NOAA

TAF SGCO 181628Z 1818/1918 05012KT CAVOK TX30/1819Z TN19/1909Z
BECMG 1819/1821 9999 SCT030
BECMG 1901/1905 12005KT CAVOK
BECMG 1906/1908 03007KT 9999 BKN027
BECMG 1911/1913 VRB05KT

Example: see airport list